Time;durP1;ratioP1;P1;durP2;ratioP2;P2;SDS_P1;SDS_P2;PMS_P1;PMS_P2;Temp;Humidity;BMP_temperature;BMP_pressure;BME280_temperature;BME280_humidity;BME280_pressure;Samples;Min_cycle;Max_cycle;Signal;HPM_P1;HPM_P2
2023/05/07 00:01:46;;;;;;;23.02;10.85;;;13.70;99.90;;;;;;5030640;28;20042;-59
2023/05/07 00:04:13;;;;;;;24.85;10.95;;;13.80;99.90;;;;;;5029896;28;20050;-59
2023/05/07 00:06:41;;;;;;;29.15;12.02;;;13.80;99.90;;;;;;5023749;28;20057;-60
2023/05/07 00:09:10;;;;;;;26.42;12.30;;;13.80;99.90;;;;;;5024805;28;20061;-59
2023/05/07 00:11:38;;;;;;;35.95;13.60;;;13.80;99.90;;;;;;5027112;28;20697;-59
2023/05/07 00:14:06;;;;;;;30.15;13.75;;;13.80;99.90;;;;;;5023417;28;20045;-59
2023/05/07 00:16:34;;;;;;;26.70;11.57;;;13.80;99.90;;;;;;5022151;28;20041;-59
2023/05/07 00:19:02;;;;;;;28.13;12.90;;;13.80;99.90;;;;;;5029812;28;20065;-59
2023/05/07 00:21:30;;;;;;;34.15;14.00;;;13.80;99.90;;;;;;5028727;28;20046;-59
2023/05/07 00:23:58;;;;;;;34.90;14.30;;;13.80;99.90;;;;;;5029369;28;20057;-59
2023/05/07 00:26:26;;;;;;;42.03;17.33;;;;;;;;;;5028799;28;20053;-60
2023/05/07 00:28:54;;;;;;;43.47;16.45;;;13.80;99.90;;;;;;5018951;28;20057;-60
2023/05/07 00:31:24;;;;;;;52.92;17.40;;;13.80;99.90;;;;;;5002549;28;20049;-59
2023/05/07 00:33:52;;;;;;;38.17;17.48;;;13.80;99.90;;;;;;5028992;28;20326;-59
2023/05/07 00:36:19;;;;;;;49.15;18.65;;;13.80;99.90;;;;;;5029480;28;20041;-58
2023/05/07 00:38:47;;;;;;;45.83;18.85;;;13.80;99.90;;;;;;5000644;28;20053;-58
2023/05/07 00:41:15;;;;;;;43.83;17.67;;;13.80;99.90;;;;;;5018469;28;20042;-60
2023/05/07 00:43:43;;;;;;;43.17;17.02;;;13.80;99.90;;;;;;5017536;28;20049;-59
2023/05/07 00:46:14;;;;;;;42.95;17.48;;;13.80;99.90;;;;;;5024213;28;20050;-60
2023/05/07 00:48:42;;;;;;;42.95;18.88;;;13.80;99.90;;;;;;5017215;28;20052;-58
2023/05/07 00:51:11;;;;;;;46.47;19.33;;;13.80;99.90;;;;;;5017127;28;20048;-61
2023/05/07 00:53:40;;;;;;;49.55;17.90;;;13.80;99.90;;;;;;5029385;28;20045;-60
2023/05/07 00:56:09;;;;;;;46.90;18.58;;;13.80;99.90;;;;;;5029499;28;20057;-61
2023/05/07 00:58:38;;;;;;;46.50;18.38;;;13.80;99.90;;;;;;5012263;28;20056;-59
2023/05/07 01:01:06;;;;;;;42.35;17.50;;;13.80;99.90;;;;;;5028221;28;20041;-60
2023/05/07 01:03:36;;;;;;;46.90;18.90;;;13.80;99.90;;;;;;5024704;28;20045;-59
2023/05/07 01:06:07;;;;;;;45.95;17.95;;;13.80;99.90;;;;;;5003349;28;20889;-59
2023/05/07 01:08:36;;;;;;;46.65;18.23;;;13.80;99.90;;;;;;5003634;28;20053;-59
2023/05/07 01:11:04;;;;;;;40.65;18.10;;;13.80;99.90;;;;;;5019889;28;20065;-60
2023/05/07 01:13:32;;;;;;;40.78;18.40;;;13.70;99.90;;;;;;5010667;28;20473;-59
2023/05/07 01:16:00;;;;;;;41.55;17.08;;;13.70;99.90;;;;;;5015082;28;20045;-59
2023/05/07 01:18:29;;;;;;;39.67;17.70;;;13.70;99.90;;;;;;5021608;28;20050;-59
2023/05/07 01:21:00;;;;;;;33.20;15.82;;;13.70;99.90;;;;;;5013754;28;20068;-60
2023/05/07 01:23:30;;;;;;;36.95;17.08;;;13.70;99.90;;;;;;5028059;28;20064;-58
2023/05/07 01:25:58;;;;;;;34.72;16.85;;;13.70;99.90;;;;;;5010879;28;20140;-59
2023/05/07 01:28:27;;;;;;;35.53;14.90;;;13.70;99.90;;;;;;5012050;28;20045;-59
2023/05/07 01:31:04;;;;;;;31.70;15.50;;;13.70;99.90;;;;;;5025670;28;20056;-58
2023/05/07 01:33:36;;;;;;;31.67;15.27;;;13.60;99.90;;;;;;5014355;28;20065;-58
2023/05/07 01:36:06;;;;;;;32.10;15.13;;;13.60;99.90;;;;;;5020449;28;20049;-59
2023/05/07 01:38:40;;;;;;;36.28;16.15;;;13.60;99.90;;;;;;5030111;28;20049;-60
2023/05/07 01:41:08;;;;;;;32.15;15.77;;;;;;;;;;5030203;28;20045;-59
2023/05/07 01:43:36;;;;;;;34.53;16.25;;;13.60;99.90;;;;;;5030127;28;20492;-59
2023/05/07 01:46:04;;;;;;;40.53;16.48;;;13.60;99.90;;;;;;5024112;28;20045;-60
2023/05/07 01:48:34;;;;;;;35.95;16.60;;;13.60;99.90;;;;;;5009163;28;20342;-58
2023/05/07 01:51:02;;;;;;;31.20;16.40;;;13.60;99.90;;;;;;5006483;28;20041;-58
2023/05/07 01:53:39;;;;;;;28.45;14.77;;;13.60;99.90;;;;;;5031225;28;20045;-58
2023/05/07 01:56:07;;;;;;;34.47;14.93;;;13.50;99.90;;;;;;5024806;28;20489;-59
2023/05/07 01:58:37;;;;;;;30.92;15.45;;;13.20;99.90;;;;;;5012986;28;20060;-56
2023/05/07 02:01:05;;;;;;;28.60;14.98;;;13.50;99.90;;;;;;5030320;28;20049;-58
2023/05/07 02:03:33;;;;;;;29.73;14.82;;;13.50;99.90;;;;;;5031717;28;20056;-58
2023/05/07 02:06:09;;;;;;;30.13;15.95;;;13.50;99.90;;;;;;5012984;28;20060;-59
2023/05/07 02:08:39;;;;;;;32.13;16.90;;;13.50;99.90;;;;;;5014460;28;20057;-59
2023/05/07 02:11:07;;;;;;;33.33;15.18;;;13.50;99.90;;;;;;5013873;28;20048;-58
2023/05/07 02:13:36;;;;;;;37.35;16.15;;;13.50;99.90;;;;;;5013124;28;20049;-57
2023/05/07 02:16:06;;;;;;;35.60;16.90;;;13.40;99.90;;;;;;5032178;28;20068;-58
2023/05/07 02:18:35;;;;;;;41.22;17.20;;;13.40;99.90;;;;;;5014668;28;20045;-58
2023/05/07 02:21:03;;;;;;;38.70;16.65;;;13.40;99.90;;;;;;5013844;28;20041;-60
2023/05/07 02:23:31;;;;;;;37.45;17.95;;;13.40;99.90;;;;;;5026841;28;20072;-58
2023/05/07 02:25:59;;;;;;;38.28;17.33;;;13.40;99.90;;;;;;5031876;28;20041;-58
2023/05/07 02:28:26;;;;;;;40.80;19.70;;;13.40;99.90;;;;;;5030960;28;20393;-58
2023/05/07 02:31:00;;;;;;;37.10;17.10;;;13.40;99.90;;;;;;5030573;28;20054;-59
2023/05/07 02:33:29;;;;;;;40.92;18.30;;;13.40;99.90;;;;;;5028253;28;20381;-57
2023/05/07 02:36:06;;;;;;;39.88;18.67;;;13.40;99.90;;;;;;5021618;28;20050;-60
2023/05/07 02:38:44;;;;;;;38.55;18.33;;;13.40;99.90;;;;;;4995596;28;20046;-58
2023/05/07 02:41:12;;;;;;;42.97;19.25;;;13.40;99.90;;;;;;5007571;28;20544;-59
2023/05/07 02:43:39;;;;;;;46.33;20.85;;;13.40;99.90;;;;;;5022857;28;20045;-59
2023/05/07 02:46:08;;;;;;;42.53;19.23;;;13.40;99.90;;;;;;5023986;28;20050;-58
2023/05/07 02:48:40;;;;;;;41.67;18.83;;;13.40;99.90;;;;;;5013043;28;20513;-60
2023/05/07 02:51:08;;;;;;;45.65;21.77;;;13.40;99.90;;;;;;5013495;28;20433;-58
2023/05/07 02:53:38;;;;;;;54.15;19.88;;;13.40;99.90;;;;;;5013678;28;20033;-57
2023/05/07 02:56:06;;;;;;;47.20;21.48;;;13.40;99.90;;;;;;5012670;28;20404;-58
2023/05/07 02:58:39;;;;;;;51.63;21.90;;;13.40;99.90;;;;;;5012923;28;20050;-57
2023/05/07 03:01:07;;;;;;;52.90;21.65;;;13.40;99.90;;;;;;5030153;28;20400;-57
2023/05/07 03:03:40;;;;;;;45.50;20.63;;;13.40;99.90;;;;;;5028694;28;20049;-58
2023/05/07 03:06:07;;;;;;;40.88;19.70;;;13.30;99.90;;;;;;5025941;28;20497;-58
2023/05/07 03:08:36;;;;;;;42.47;20.17;;;13.30;99.90;;;;;;5004879;28;20401;-59
2023/05/07 03:11:07;;;;;;;40.88;18.63;;;13.30;99.90;;;;;;5025041;28;20066;-62
2023/05/07 03:13:34;;;;;;;41.90;18.30;;;13.30;99.90;;;;;;5011673;28;20477;-58
2023/05/07 03:16:02;;;;;;;49.78;19.85;;;13.20;99.90;;;;;;5011554;28;20053;-58
2023/05/07 03:18:30;;;;;;;37.45;18.08;;;13.20;99.90;;;;;;5010459;28;20038;-57
2023/05/07 03:20:59;;;;;;;40.67;17.35;;;13.10;99.90;;;;;;4993896;28;20081;-59
2023/05/07 03:23:27;;;;;;;30.73;14.13;;;13.10;99.90;;;;;;5004413;28;20057;-59
2023/05/07 03:25:54;;;;;;;29.92;12.82;;;13.10;99.90;;;;;;4994295;28;20046;-60
2023/05/07 03:28:23;;;;;;;33.50;14.15;;;13.10;99.90;;;;;;5009832;28;20512;-57
2023/05/07 03:30:56;;;;;;;28.38;13.18;;;12.50;99.90;;;;;;5013465;28;20116;-58
2023/05/07 03:33:24;;;;;;;26.63;12.65;;;12.90;99.90;;;;;;5028209;28;20041;-60
2023/05/07 03:35:53;;;;;;;28.92;12.27;;;12.90;99.90;;;;;;5027910;28;20046;-58
2023/05/07 03:38:24;;;;;;;28.10;12.25;;;12.90;99.90;;;;;;5028655;28;20041;-58
2023/05/07 03:40:52;;;;;;;24.30;11.30;;;12.80;99.90;;;;;;5006421;28;20042;-58
2023/05/07 03:43:20;;;;;;;27.15;12.00;;;12.80;99.90;;;;;;5001509;28;20082;-58
2023/05/07 03:45:55;;;;;;;31.27;10.40;;;12.70;99.90;;;;;;5029817;28;20041;-59
2023/05/07 03:48:25;;;;;;;30.08;11.88;;;12.70;99.90;;;;;;5021853;28;20046;-59
2023/05/07 03:50:57;;;;;;;25.55;11.23;;;12.70;99.90;;;;;;5029528;28;20050;-58
2023/05/07 03:53:28;;;;;;;21.88;11.38;;;12.60;99.90;;;;;;5012368;28;20049;-59
2023/05/07 03:55:55;;;;;;;26.00;10.73;;;12.60;99.90;;;;;;5031183;28;20052;-58
2023/05/07 03:58:23;;;;;;;24.73;11.50;;;12.60;99.90;;;;;;5021722;28;20049;-58
2023/05/07 04:00:52;;;;;;;26.20;10.63;;;12.60;99.90;;;;;;5012083;28;20068;-59
2023/05/07 04:03:26;;;;;;;26.13;11.00;;;12.60;99.90;;;;;;5028242;28;20049;-58
2023/05/07 04:05:58;;;;;;;22.92;10.85;;;12.60;99.90;;;;;;5031689;28;20037;-58
2023/05/07 04:08:25;;;;;;;28.95;11.05;;;12.60;99.90;;;;;;5024010;28;20060;-58
2023/05/07 04:10:56;;;;;;;23.95;10.88;;;12.60;99.90;;;;;;5014967;28;20046;-57
2023/05/07 04:13:25;;;;;;;25.83;10.35;;;12.50;99.90;;;;;;4997308;28;20049;-57
2023/05/07 04:15:55;;;;;;;26.15;10.40;;;12.50;99.90;;;;;;5013121;28;20050;-58
2023/05/07 04:18:24;;;;;;;27.60;10.45;;;12.50;99.90;;;;;;5032473;28;20052;-59
2023/05/07 04:20:52;;;;;;;22.85;10.45;;;12.40;99.90;;;;;;5034389;28;20484;-59
2023/05/07 04:23:21;;;;;;;24.80;10.88;;;12.50;99.90;;;;;;5016357;28;20452;-59
2023/05/07 04:25:50;;;;;;;23.98;11.10;;;12.40;99.90;;;;;;5033050;28;20049;-59
2023/05/07 04:28:25;;;;;;;28.50;10.00;;;12.40;99.90;;;;;;5007571;28;20049;-58
2023/05/07 04:30:53;;;;;;;22.23;10.52;;;12.40;99.90;;;;;;5015431;28;20037;-59
2023/05/07 04:33:22;;;;;;;24.55;9.40;;;12.40;99.90;;;;;;5016359;28;20057;-59
2023/05/07 04:35:50;;;;;;;20.73;9.88;;;12.40;99.90;;;;;;5033071;28;20057;-58
2023/05/07 04:38:18;;;;;;;26.80;9.93;;;12.40;99.90;;;;;;5011407;28;20057;-58
2023/05/07 04:40:49;;;;;;;28.70;10.85;;;12.40;99.90;;;;;;5015292;28;20946;-59
2023/05/07 04:43:21;;;;;;;27.75;9.80;;;12.30;99.90;;;;;;5032704;28;20064;-59
2023/05/07 04:45:52;;;;;;;25.58;10.45;;;12.40;99.90;;;;;;5033776;28;20692;-59
2023/05/07 04:48:22;;;;;;;25.05;10.57;;;12.40;99.90;;;;;;5027216;28;20838;-59
2023/05/07 04:50:51;;;;;;;29.48;10.90;;;12.30;99.90;;;;;;4997204;28;20048;-59
2023/05/07 04:53:21;;;;;;;28.55;10.27;;;12.40;99.90;;;;;;5028154;28;20044;-58
2023/05/07 04:55:56;;;;;;;27.60;11.02;;;12.30;99.90;;;;;;5028475;28;20404;-58
2023/05/07 04:58:27;;;;;;;31.10;10.77;;;12.40;99.90;;;;;;5023043;28;20053;-58
2023/05/07 05:00:56;;;;;;;30.33;10.93;;;12.40;99.90;;;;;;5014357;28;20037;-59
2023/05/07 05:03:24;;;;;;;30.92;11.68;;;;;;;;;;4984871;28;20057;-59
2023/05/07 05:05:53;;;;;;;31.73;11.38;;;12.40;99.90;;;;;;5025437;28;20048;-61
2023/05/07 05:08:22;;;;;;;29.98;12.27;;;12.40;99.90;;;;;;5025336;28;20049;-59
2023/05/07 05:10:50;;;;;;;31.77;11.50;;;12.40;99.90;;;;;;5024937;28;20057;-58
2023/05/07 05:13:18;;;;;;;27.50;11.75;;;12.50;99.90;;;;;;5019492;28;20053;-60
2023/05/07 05:15:47;;;;;;;24.65;10.82;;;12.40;99.90;;;;;;5027168;28;20045;-59
2023/05/07 05:18:15;;;;;;;26.73;11.50;;;12.40;99.90;;;;;;5026286;28;20052;-59
2023/05/07 05:20:43;;;;;;;24.10;10.50;;;12.50;99.90;;;;;;5009335;28;20050;-59
2023/05/07 05:23:12;;;;;;;26.92;10.75;;;12.50;99.90;;;;;;5012731;28;20129;-60
2023/05/07 05:25:42;;;;;;;29.00;11.18;;;12.50;99.90;;;;;;5025785;28;20052;-59
2023/05/07 05:28:12;;;;;;;27.42;10.75;;;12.50;99.90;;;;;;5027659;28;20056;-59
2023/05/07 05:30:40;;;;;;;24.20;10.02;;;12.60;99.90;;;;;;5026356;28;20225;-58
2023/05/07 05:33:09;;;;;;;26.02;9.85;;;12.60;99.90;;;;;;5004413;28;20045;-60
2023/05/07 05:35:44;;;;;;;33.33;11.13;;;12.60;99.90;;;;;;5022561;28;20045;-60
2023/05/07 05:38:13;;;;;;;21.50;10.13;;;12.60;99.90;;;;;;5002764;28;20057;-64
2023/05/07 05:40:41;;;;;;;24.13;10.15;;;12.60;99.90;;;;;;4994543;28;20049;-61
2023/05/07 05:43:09;;;;;;;23.70;10.88;;;12.60;99.90;;;;;;5013330;28;20053;-59
2023/05/07 05:45:38;;;;;;;20.02;9.52;;;12.60;99.90;;;;;;4993245;28;20041;-59
2023/05/07 05:48:09;;;;;;;26.58;10.10;;;12.70;99.90;;;;;;5012800;28;20049;-59
2023/05/07 05:50:38;;;;;;;22.05;9.65;;;12.70;99.90;;;;;;5005376;28;20321;-60
2023/05/07 05:53:07;;;;;;;18.20;8.60;;;12.70;99.90;;;;;;5017081;28;20052;-60
2023/05/07 05:55:35;;;;;;;24.52;8.85;;;12.80;99.90;;;;;;5026818;28;20295;-60
2023/05/07 05:58:02;;;;;;;17.08;8.15;;;12.80;99.90;;;;;;5017374;28;20045;-59
2023/05/07 06:00:34;;;;;;;29.65;9.90;;;12.80;99.90;;;;;;5008071;28;20041;-58
2023/05/07 06:03:04;;;;;;;18.55;8.35;;;12.90;99.90;;;;;;5026493;28;20041;-60
2023/05/07 06:05:35;;;;;;;19.02;7.88;;;12.90;99.90;;;;;;5009484;28;20037;-59
2023/05/07 06:08:03;;;;;;;25.73;8.52;;;12.90;99.90;;;;;;5026526;28;20056;-58
2023/05/07 06:10:36;;;;;;;20.73;8.18;;;12.90;99.90;;;;;;4999979;28;20041;-59
2023/05/07 06:13:06;;;;;;;26.63;9.07;;;12.90;99.90;;;;;;5019412;28;20060;-60
2023/05/07 06:15:37;;;;;;;20.73;7.07;;;13.00;99.90;;;;;;4999534;28;20041;-59
2023/05/07 06:18:12;;;;;;;16.75;7.85;;;13.00;99.90;;;;;;5007444;28;20408;-60
2023/05/07 06:20:41;;;;;;;19.70;7.95;;;13.10;99.90;;;;;;5017399;28;20045;-58
2023/05/07 06:23:14;;;;;;;17.65;7.72;;;13.10;99.90;;;;;;5018158;28;20396;-60
2023/05/07 06:25:50;;;;;;;20.65;7.75;;;13.10;99.90;;;;;;5028632;28;20056;-59
2023/05/07 06:28:23;;;;;;;14.70;7.35;;;13.10;99.90;;;;;;5015518;28;20052;-59
2023/05/07 06:30:52;;;;;;;18.08;6.57;;;13.20;99.90;;;;;;5018831;28;20253;-59
2023/05/07 06:33:19;;;;;;;12.10;5.65;;;13.10;99.90;;;;;;5004987;28;20045;-60
2023/05/07 06:35:47;;;;;;;12.32;5.43;;;13.10;99.90;;;;;;5004872;28;20044;-58
2023/05/07 06:38:15;;;;;;;14.48;5.75;;;13.10;99.90;;;;;;5014874;28;20511;-59
2023/05/07 06:40:44;;;;;;;13.65;5.47;;;13.10;99.90;;;;;;4999670;28;20053;-58
2023/05/07 06:43:11;;;;;;;11.90;5.50;;;13.10;99.90;;;;;;5032163;28;20056;-59
2023/05/07 06:45:48;;;;;;;17.88;5.43;;;13.10;99.90;;;;;;5008003;28;20056;-59
2023/05/07 06:48:16;;;;;;;12.63;3.85;;;13.10;99.90;;;;;;5009409;28;20050;-59
2023/05/07 06:50:51;;;;;;;9.77;4.40;;;13.10;99.90;;;;;;5019642;28;20052;-60
2023/05/07 06:53:19;;;;;;;8.52;4.10;;;13.10;99.90;;;;;;5015965;28;20049;-59
2023/05/07 06:55:47;;;;;;;12.70;4.03;;;13.10;99.90;;;;;;5016282;28;20333;-58
2023/05/07 06:58:16;;;;;;;8.25;3.47;;;13.10;99.90;;;;;;5006945;28;20493;-59
2023/05/07 07:00:45;;;;;;;12.95;4.13;;;13.20;99.90;;;;;;5021418;28;20052;-61
2023/05/07 07:03:14;;;;;;;9.77;3.43;;;13.10;99.90;;;;;;5012288;28;20583;-63
2023/05/07 07:05:42;;;;;;;14.77;3.75;;;13.10;99.90;;;;;;5005488;28;20635;-61
2023/05/07 07:08:10;;;;;;;9.23;3.50;;;13.10;99.90;;;;;;5014912;28;20048;-59
2023/05/07 07:10:38;;;;;;;14.30;3.60;;;13.10;99.90;;;;;;5020261;28;20033;-59
2023/05/07 07:13:08;;;;;;;9.30;4.32;;;13.20;99.90;;;;;;5010054;28;20397;-60
2023/05/07 07:15:43;;;;;;;10.48;4.32;;;13.10;99.90;;;;;;5011899;28;20049;-59
2023/05/07 07:18:11;;;;;;;12.40;3.83;;;13.10;99.90;;;;;;5010344;28;20112;-60
2023/05/07 07:20:39;;;;;;;10.40;3.80;;;13.00;99.90;;;;;;5012018;28;20045;-59
2023/05/07 07:23:08;;;;;;;18.80;4.53;;;13.00;99.90;;;;;;5000591;28;20397;-59
2023/05/07 07:25:36;;;;;;;12.25;3.90;;;12.90;99.90;;;;;;5011666;28;20049;-60
2023/05/07 07:28:05;;;;;;;14.40;3.53;;;12.90;99.90;;;;;;5013344;28;20090;-59
2023/05/07 07:30:33;;;;;;;10.50;3.67;;;12.90;99.90;;;;;;5014705;28;20045;-60
2023/05/07 07:33:03;;;;;;;22.27;4.28;;;12.90;99.90;;;;;;5008787;28;20596;-58
2023/05/07 07:35:34;;;;;;;10.35;3.25;;;12.90;99.90;;;;;;5009847;28;20044;-59
2023/05/07 07:38:04;;;;;;;8.52;3.90;;;12.90;99.90;;;;;;5005486;28;20050;-60
2023/05/07 07:40:35;;;;;;;10.35;4.03;;;12.90;99.90;;;;;;5010807;28;20042;-60
2023/05/07 07:43:06;;;;;;;13.93;4.47;;;13.00;99.90;;;;;;5018033;28;20041;-60
2023/05/07 07:45:34;;;;;;;8.18;3.63;;;13.10;99.90;;;;;;5012135;28;20377;-59
2023/05/07 07:48:02;;;;;;;12.20;4.07;;;13.20;99.90;;;;;;4995275;28;20073;-59
2023/05/07 07:50:33;;;;;;;13.38;4.30;;;13.30;99.90;;;;;;5028130;28;20041;-59
2023/05/07 07:53:15;;;;;;;11.00;3.97;;;13.50;99.90;;;;;;5004727;28;20052;-60
2023/05/07 07:55:44;;;;;;;12.65;3.85;;;13.50;99.90;;;;;;5010133;28;20057;-61
2023/05/07 07:58:15;;;;;;;10.00;3.95;;;13.50;99.90;;;;;;5011583;28;20042;-60
2023/05/07 08:00:43;;;;;;;9.57;3.70;;;13.70;99.90;;;;;;5026662;28;20057;-61
2023/05/07 08:03:12;;;;;;;10.90;4.03;;;13.80;99.90;;;;;;4988646;28;20061;-60
2023/05/07 08:05:44;;;;;;;10.52;4.00;;;13.80;99.90;;;;;;5012033;28;20045;-60
2023/05/07 08:08:11;;;;;;;9.63;3.05;;;14.00;99.90;;;;;;5012197;28;20052;-61
2023/05/07 08:10:41;;;;;;;7.75;3.72;;;14.00;99.90;;;;;;5026383;28;20064;-60
2023/05/07 08:13:17;;;;;;;11.20;3.20;;;14.00;99.90;;;;;;4994343;28;20052;-60
2023/05/07 08:15:45;;;;;;;14.73;4.32;;;14.00;99.90;;;;;;5020376;28;20041;-61
2023/05/07 08:18:14;;;;;;;8.98;2.90;;;14.00;99.90;;;;;;5012974;28;20049;-61
2023/05/07 08:20:44;;;;;;;11.98;3.70;;;14.00;99.90;;;;;;5005196;28;20453;-61
2023/05/07 08:23:16;;;;;;;8.00;2.72;;;14.10;99.90;;;;;;5028668;28;20038;-61
2023/05/07 08:25:48;;;;;;;10.38;3.10;;;14.20;99.90;;;;;;4998022;28;20060;-60
2023/05/07 08:28:16;;;;;;;7.38;2.85;;;14.20;99.90;;;;;;5012212;28;20041;-62
2023/05/07 08:30:45;;;;;;;11.93;2.78;;;14.20;99.90;;;;;;5030077;28;20049;-60
2023/05/07 08:33:13;;;;;;;9.07;2.88;;;14.30;99.90;;;;;;5012193;28;20396;-61
2023/05/07 08:35:40;;;;;;;5.85;2.75;;;14.30;99.90;;;;;;5010683;28;20049;-62
2023/05/07 08:38:10;;;;;;;;;;;14.30;99.90;;;;;;5002365;28;20041;-59
2023/05/07 08:40:42;;;;;;;5.90;2.35;;;14.40;99.90;;;;;;5023339;28;20401;-61
2023/05/07 08:43:18;;;;;;;10.65;3.13;;;14.40;99.90;;;;;;5016116;28;20057;-60
2023/05/07 08:45:51;;;;;;;5.32;2.45;;;14.50;99.90;;;;;;5024778;28;20048;-62
2023/05/07 08:48:25;;;;;;;9.48;3.03;;;14.60;99.90;;;;;;5009551;28;20058;-61
2023/05/07 08:50:59;;;;;;;17.17;3.53;;;14.70;99.90;;;;;;5012901;28;20608;-62
2023/05/07 08:53:27;;;;;;;10.93;3.60;;;14.70;99.90;;;;;;5011036;28;20049;-62
2023/05/07 08:55:55;;;;;;;10.55;3.78;;;14.80;99.90;;;;;;5002554;28;20072;-61
2023/05/07 08:58:23;;;;;;;10.85;3.92;;;14.80;99.90;;;;;;5026009;28;20056;-60
2023/05/07 09:00:53;;;;;;;11.52;3.10;;;14.80;99.90;;;;;;5011723;28;20112;-61
2023/05/07 09:03:22;;;;;;;8.38;3.30;;;14.90;99.90;;;;;;5008745;28;20041;-62
2023/05/07 09:05:52;;;;;;;;;;;14.90;99.90;;;;;;5015967;28;20052;-61
2023/05/07 09:08:25;;;;;;;5.38;2.17;;;15.00;99.90;;;;;;5026060;28;19925;-60
2023/05/07 09:10:55;;;;;;;9.00;2.95;;;15.00;99.90;;;;;;5011318;28;20044;-61
2023/05/07 09:13:23;;;;;;;11.88;3.08;;;15.10;99.90;;;;;;4991755;28;20049;-61
2023/05/07 09:15:51;;;;;;;7.13;3.40;;;15.30;99.90;;;;;;5003378;28;20046;-59
2023/05/07 09:18:20;;;;;;;6.95;2.75;;;15.40;99.90;;;;;;5025307;28;20045;-60
2023/05/07 09:20:49;;;;;;;9.13;2.53;;;15.50;99.90;;;;;;5003285;28;20046;-60
2023/05/07 09:23:20;;;;;;;7.43;2.28;;;15.60;99.90;;;;;;5000441;28;20602;-59
2023/05/07 09:25:48;;;;;;;10.10;2.95;;;15.60;99.90;;;;;;5023671;28;20045;-59
2023/05/07 09:28:23;;;;;;;9.20;2.50;;;16.50;99.90;;;;;;5018265;28;20046;-61
2023/05/07 09:30:51;;;;;;;8.35;2.20;;;15.70;99.90;;;;;;5007405;28;20038;-61
2023/05/07 09:33:26;;;;;;;7.60;2.55;;;15.80;99.90;;;;;;5004016;28;20037;-59
2023/05/07 09:35:54;;;;;;;6.78;1.75;;;16.00;99.90;;;;;;4991937;28;20313;-60
2023/05/07 09:38:22;;;;;;;9.75;2.38;;;16.00;99.90;;;;;;5008433;28;20046;-60
2023/05/07 09:41:12;;;;;;;4.97;2.35;;;16.20;99.90;;;;;;4998081;28;20497;-61
2023/05/07 09:44:05;;;;;;;5.72;2.40;;;16.40;99.90;;;;;;5021193;28;20053;-60
2023/05/07 09:46:44;;;;;;;10.00;2.58;;;16.40;99.90;;;;;;5006326;28;20045;-61
2023/05/07 09:49:23;;;;;;;7.95;2.25;;;16.50;99.90;;;;;;5003065;28;20037;-62
2023/05/07 09:52:00;;;;;;;6.25;2.00;;;16.60;99.90;;;;;;5010783;28;20591;-59
2023/05/07 09:54:37;;;;;;;5.10;2.17;;;16.60;99.90;;;;;;5018151;28;20056;-62
2023/05/07 09:57:08;;;;;;;6.95;2.30;;;16.40;99.90;;;;;;5023643;28;20057;-60
2023/05/07 09:59:38;;;;;;;3.47;1.70;;;16.40;99.90;;;;;;5022202;28;20057;-61
2023/05/07 10:02:11;;;;;;;5.18;1.92;;;16.40;99.90;;;;;;4994562;28;20053;-62
2023/05/07 10:04:48;;;;;;;4.40;1.60;;;16.40;99.90;;;;;;5002966;28;20496;-61
2023/05/07 10:07:19;;;;;;;6.03;2.03;;;16.50;99.90;;;;;;5002120;28;20042;-61
2023/05/07 10:09:50;;;;;;;6.28;1.58;;;16.80;99.90;;;;;;4998589;28;20662;-62
2023/05/07 10:12:29;;;;;;;5.65;2.33;;;16.80;99.90;;;;;;5021994;28;20045;-60
2023/05/07 10:14:58;;;;;;;4.65;1.85;;;17.00;99.90;;;;;;5025672;28;20046;-61
2023/05/07 10:17:26;;;;;;;6.65;2.28;;;17.10;99.90;;;;;;5023661;28;20052;-62
2023/05/07 10:19:55;;;;;;;5.90;1.75;;;17.20;99.90;;;;;;5023197;28;20068;-62
2023/05/07 10:22:24;;;;;;;6.70;1.75;;;17.30;99.90;;;;;;4991427;28;20064;-62
2023/05/07 10:24:54;;;;;;;4.78;1.75;;;17.20;99.90;;;;;;5018734;28;20041;-61
2023/05/07 10:27:23;;;;;;;6.75;2.28;;;17.20;99.90;;;;;;5010114;28;20052;-61
2023/05/07 10:30:15;;;;;;;4.43;1.60;;;17.20;99.90;;;;;;5009680;28;20056;-62
2023/05/07 10:32:52;;;;;;;7.40;2.10;;;17.30;99.90;;;;;;5021502;28;20061;-61
2023/05/07 10:35:32;;;;;;;4.95;1.65;;;17.30;99.90;;;;;;4991962;28;20045;-62
2023/05/07 10:38:04;;;;;;;4.75;1.88;;;17.30;99.90;;;;;;5009721;28;20041;-62
2023/05/07 10:40:34;;;;;;;7.90;2.20;;;17.30;99.90;;;;;;4991402;28;20049;-62
2023/05/07 10:43:07;;;;;;;6.05;2.33;;;17.40;99.90;;;;;;5019970;28;20048;-60
2023/05/07 10:46:18;;;;;;;8.02;2.00;;;17.50;99.90;;;;;;5022860;28;20497;-65
2023/05/07 10:49:11;;;;;;;5.05;2.13;;;17.20;99.90;;;;;;5004782;28;20041;-66
2023/05/07 10:52:16;;;;;;;5.68;1.83;;;17.70;99.90;;;;;;5007669;28;20330;-64
2023/05/07 10:55:21;;;;;;;7.22;2.20;;;18.00;99.90;;;;;;5000367;28;20046;-66
2023/05/07 10:58:28;;;;;;;3.92;1.83;;;18.00;99.90;;;;;;4998719;28;20044;-66
2023/05/07 11:01:52;;;;;;;3.75;1.70;;;18.10;99.90;;;;;;5019985;28;20037;-64
2023/05/07 11:04:27;;;;;;;6.45;1.75;;;18.20;99.90;;;;;;5019402;28;20041;-65
2023/05/07 11:07:28;;;;;;;8.70;2.30;;;18.20;99.90;;;;;;5023506;28;20396;-66
2023/05/07 11:10:07;;;;;;;5.40;1.60;;;18.30;99.90;;;;;;5009564;28;20048;-61
2023/05/07 11:12:51;;;;;;;5.70;1.77;;;18.30;99.90;;;;;;5007487;28;20046;-61
2023/05/07 11:15:36;;;;;;;4.82;1.33;;;18.40;99.90;;;;;;5009007;28;20045;-63
2023/05/07 11:18:17;;;;;;;9.18;1.77;;;18.40;99.90;;;;;;5001036;28;20044;-64
2023/05/07 11:20:54;;;;;;;3.95;1.90;;;18.40;99.90;;;;;;5024977;28;20042;-63
2023/05/07 11:23:49;;;;;;;5.25;1.42;;;18.60;99.90;;;;;;5009176;28;20046;-65
2023/05/07 11:26:27;;;;;;;2.67;1.42;;;18.70;99.90;;;;;;5006010;28;20045;-62
2023/05/07 11:28:55;;;;;;;3.85;1.23;;;18.70;99.90;;;;;;5018882;28;20049;-61
2023/05/07 11:31:28;;;;;;;2.00;1.13;;;18.70;99.90;;;;;;4989830;28;20053;-61
2023/05/07 11:33:59;;;;;;;3.55;1.45;;;18.60;99.90;;;;;;5021514;28;20489;-62
2023/05/07 11:36:32;;;;;;;2.72;1.20;;;18.60;99.90;;;;;;4986434;28;20061;-61
2023/05/07 11:39:03;;;;;;;5.30;1.05;;;18.60;99.90;;;;;;5008028;28;20057;-62
2023/05/07 11:41:37;;;;;;;4.00;1.30;;;18.80;99.90;;;;;;5025417;28;20054;-62
2023/05/07 11:44:05;;;;;;;2.35;1.20;;;19.00;99.90;;;;;;5013910;28;20046;-63
2023/05/07 11:46:33;;;;;;;2.55;1.20;;;19.00;99.90;;;;;;5026637;28;20420;-63
2023/05/07 11:49:01;;;;;;;3.38;1.25;;;19.00;99.90;;;;;;5022523;28;20040;-61
2023/05/07 11:51:28;;;;;;;3.80;1.27;;;18.80;99.90;;;;;;5021929;28;20822;-62
2023/05/07 11:53:56;;;;;;;2.10;1.02;;;18.80;99.90;;;;;;5024842;28;20401;-61
2023/05/07 11:56:24;;;;;;;4.22;1.30;;;18.70;99.90;;;;;;5027211;28;20420;-63
2023/05/07 11:58:55;;;;;;;5.63;1.52;;;18.60;99.90;;;;;;5021059;28;20049;-61
2023/05/07 12:01:22;;;;;;;3.30;1.30;;;19.10;99.90;;;;;;4989300;28;20057;-62
2023/05/07 12:03:50;;;;;;;7.28;1.50;;;19.20;99.90;;;;;;5023843;28;20049;-65
2023/05/07 12:06:19;;;;;;;4.40;2.10;;;19.70;99.90;;;;;;5024550;28;20392;-65
2023/05/07 12:08:47;;;;;;;4.97;1.55;;;20.20;99.90;;;;;;5016163;28;20046;-62
2023/05/07 12:11:23;;;;;;;2.47;1.27;;;20.50;99.90;;;;;;4978318;28;20445;-64
2023/05/07 12:13:51;;;;;;;2.97;1.80;;;21.00;99.90;;;;;;5019669;28;20037;-65
2023/05/07 12:16:20;;;;;;;3.63;1.60;;;21.40;99.90;;;;;;5022491;28;20057;-65
2023/05/07 12:18:48;;;;;;;2.92;1.42;;;21.90;99.90;;;;;;5004835;28;20052;-64
2023/05/07 12:21:17;;;;;;;5.35;2.50;;;22.30;99.90;;;;;;5020177;28;20053;-64
2023/05/07 12:23:45;;;;;;;1.33;1.00;;;22.70;99.90;;;;;;5012773;28;20064;-65
2023/05/07 12:26:13;;;;;;;3.03;1.00;;;23.00;99.90;;;;;;5026181;28;20045;-65
2023/05/07 12:28:41;;;;;;;3.25;1.55;;;23.40;99.90;;;;;;5024421;28;20041;-64
2023/05/07 12:31:10;;;;;;;3.45;1.02;;;23.40;99.90;;;;;;5025790;28;20041;-65
2023/05/07 12:33:39;;;;;;;4.13;1.30;;;23.50;99.90;;;;;;5020658;28;20046;-65
2023/05/07 12:36:08;;;;;;;1.85;1.20;;;23.70;99.90;;;;;;5023875;28;20049;-66
2023/05/07 12:38:40;;;;;;;3.35;1.10;;;23.50;99.90;;;;;;5024587;28;20049;-64
2023/05/07 12:41:12;;;;;;;4.32;1.20;;;24.00;99.20;;;;;;5020609;28;20046;-66
2023/05/07 12:43:43;;;;;;;3.88;1.35;;;24.10;99.90;;;;;;5022528;28;20045;-63
2023/05/07 12:46:13;;;;;;;3.38;0.98;;;24.20;98.80;;;;;;5021130;28;20065;-63
2023/05/07 12:48:46;;;;;;;3.55;1.17;;;23.60;99.00;;;;;;5024631;28;20046;-62
2023/05/07 12:51:16;;;;;;;3.55;1.20;;;23.60;99.60;;;;;;5011397;28;20053;-63
2023/05/07 12:53:43;;;;;;;6.13;1.30;;;23.40;99.90;;;;;;5025381;28;20049;-63
2023/05/07 12:56:11;;;;;;;2.60;1.17;;;23.40;99.90;;;;;;5026482;28;20046;-63
2023/05/07 12:58:40;;;;;;;5.93;1.33;;;23.40;99.90;;;;;;5018905;28;20524;-62